createdAt,value
2022-08-17T00:01:20.982Z,5.37
2022-08-17T00:03:48.476Z,4.73
2022-08-17T00:06:21.929Z,5.17
2022-08-17T00:08:53.116Z,5.75
2022-08-17T00:11:20.680Z,5.37
2022-08-17T00:13:48.245Z,5.23
2022-08-17T00:16:18.578Z,5.50
2022-08-17T00:18:56.774Z,4.90
2022-08-17T00:21:14.472Z,4.87
2022-08-17T00:23:47.698Z,5.13
2022-08-17T00:26:09.918Z,5.03
2022-08-17T00:28:37.470Z,5.70
2022-08-17T00:31:05.064Z,5.87
2022-08-17T00:33:32.628Z,4.93
2022-08-17T00:36:00.980Z,6.40
2022-08-17T00:38:29.591Z,5.43
2022-08-17T00:40:59.333Z,5.43
2022-08-17T00:43:31.373Z,5.47
2022-08-17T00:46:00.128Z,5.40
2022-08-17T00:48:30.097Z,5.20
2022-08-17T00:51:10.351Z,6.15
2022-08-17T00:53:37.935Z,5.50
2022-08-17T00:56:05.489Z,5.27
2022-08-17T00:58:36.123Z,5.13
2022-08-17T01:01:00.794Z,6.07
2022-08-17T01:03:29.000Z,5.47
2022-08-17T01:05:56.595Z,5.30
2022-08-17T01:08:24.149Z,5.23
2022-08-17T01:10:58.691Z,5.97
2022-08-17T01:13:20.469Z,5.67
2022-08-17T01:15:53.567Z,6.00
2022-08-17T01:18:21.133Z,6.37
2022-08-17T01:20:48.976Z,5.77
2022-08-17T01:23:20.599Z,5.60
2022-08-17T01:25:43.923Z,5.30
2022-08-17T01:28:11.595Z,5.70
2022-08-17T01:30:58.856Z,7.03
2022-08-17T01:33:06.715Z,6.90
2022-08-17T01:35:34.326Z,7.50
2022-08-17T01:38:01.882Z,6.30
2022-08-17T01:40:38.110Z,6.30
2022-08-17T01:43:17.657Z,6.27
2022-08-17T01:45:45.212Z,5.87
2022-08-17T01:48:12.795Z,5.93
2022-08-17T01:50:41.128Z,5.90
2022-08-17T01:53:08.692Z,6.00
2022-08-17T01:55:39.289Z,5.30
2022-08-17T01:58:06.873Z,6.70
2022-08-17T02:00:46.865Z,6.03
2022-08-17T02:03:01.991Z,5.63
2022-08-17T02:05:29.861Z,6.57
2022-08-17T02:08:00.376Z,6.07
2022-08-17T02:10:24.981Z,5.87
2022-08-17T02:12:52.768Z,5.80
2022-08-17T02:15:20.147Z,6.00
2022-08-17T02:17:47.741Z,6.40
2022-08-17T02:20:15.326Z,6.80
2022-08-17T02:22:42.959Z,6.20
2022-08-17T02:25:10.458Z,6.82
2022-08-17T02:27:38.048Z,6.43
2022-08-17T02:30:59.600Z,6.40
2022-08-17T02:32:33.934Z,5.90
2022-08-17T02:35:01.549Z,6.60
2022-08-17T02:37:29.133Z,6.57
2022-08-17T02:39:56.796Z,6.00
2022-08-17T02:42:27.442Z,6.03
2022-08-17T02:44:54.986Z,6.83
2022-08-17T02:47:22.561Z,6.93
2022-08-17T02:49:54.361Z,6.87
2022-08-17T02:52:17.730Z,7.07
2022-08-17T02:54:45.293Z,7.00
2022-08-17T02:57:12.936Z,7.07
2022-08-17T02:59:42.375Z,6.77
2022-08-17T03:02:08.067Z,7.20
2022-08-17T03:04:35.669Z,6.70
2022-08-17T03:07:03.191Z,6.97
2022-08-17T03:09:30.757Z,7.95
2022-08-17T03:12:07.379Z,6.43
2022-08-17T03:14:39.391Z,6.80
2022-08-17T03:17:02.479Z,7.03
2022-08-17T03:19:30.840Z,6.77
2022-08-17T03:21:59.172Z,6.40
2022-08-17T03:24:28.910Z,6.37
2022-08-17T03:26:54.311Z,6.27
2022-08-17T03:29:21.878Z,6.10
2022-08-17T03:31:49.510Z,7.20
2022-08-17T03:34:17.096Z,7.28
2022-08-17T03:36:44.647Z,6.37
2022-08-17T03:39:12.201Z,6.47
2022-08-17T03:41:39.786Z,7.60
2022-08-17T03:44:07.359Z,6.47
2022-08-17T03:46:53.968Z,7.28
2022-08-17T03:49:40.297Z,6.77
2022-08-17T03:52:26.206Z,6.90
2022-08-17T03:55:11.847Z,6.30
2022-08-17T03:57:40.189Z,6.47
2022-08-17T04:00:07.755Z,6.83
2022-08-17T04:02:35.308Z,8.68
2022-08-17T04:05:03.167Z,8.27
2022-08-17T04:07:30.737Z,8.13
2022-08-17T04:09:58.384Z,8.40
2022-08-17T04:12:25.878Z,7.80
2022-08-17T04:14:55.065Z,7.53
2022-08-17T04:17:20.979Z,6.90
2022-08-17T04:19:48.573Z,8.40
2022-08-17T04:22:33.264Z,7.43
2022-08-17T04:24:44.492Z,8.00
2022-08-17T04:27:12.083Z,7.57
2022-08-17T04:29:54.227Z,8.40
2022-08-17T04:32:07.973Z,8.43
2022-08-17T04:34:35.564Z,8.77
2022-08-17T04:37:03.138Z,8.73
2022-08-17T04:39:33.744Z,8.10
2022-08-17T04:42:07.965Z,8.77
2022-08-17T04:44:37.730Z,8.13
2022-08-17T04:47:03.084Z,9.03
2022-08-17T04:49:30.698Z,7.63
2022-08-17T04:52:01.272Z,8.23
2022-08-17T04:54:25.837Z,7.80
2022-08-17T04:56:53.437Z,9.03
2022-08-17T04:59:20.984Z,8.20
2022-08-17T05:01:48.612Z,8.57
2022-08-17T05:04:33.494Z,9.27
2022-08-17T05:06:46.730Z,8.20
2022-08-17T05:09:14.264Z,8.17
2022-08-17T05:11:44.961Z,7.37
2022-08-17T05:14:09.435Z,8.00
2022-08-17T05:16:37.764Z,7.03
2022-08-17T05:19:05.349Z,6.93
2022-08-17T05:21:32.915Z,7.50
2022-08-17T05:24:00.467Z,8.03
2022-08-17T05:26:29.430Z,8.50
2022-08-17T05:28:57.286Z,8.20
2022-08-17T05:31:24.059Z,9.10
2022-08-17T05:33:51.640Z,8.90
2022-08-17T05:36:42.517Z,8.87
2022-08-17T05:38:46.751Z,9.30
2022-08-17T05:41:14.354Z,8.60
2022-08-17T05:43:41.906Z,8.57
2022-08-17T05:46:28.376Z,8.13
2022-08-17T05:49:01.723Z,8.27
2022-08-17T05:51:32.595Z,8.63
2022-08-17T05:54:19.034Z,8.17
2022-08-17T05:56:52.356Z,8.07
2022-08-17T05:59:34.901Z,8.73
2022-08-17T06:02:29.941Z,7.97
2022-08-17T06:05:03.137Z,7.60
2022-08-17T06:07:37.241Z,9.10
2022-08-17T06:10:25.940Z,8.50
2022-08-17T06:12:58.984Z,9.80
2022-08-17T06:15:29.668Z,11.25
2022-08-17T06:18:03.072Z,9.37
2022-08-17T06:20:30.657Z,9.63
2022-08-17T06:22:58.240Z,9.50
2022-08-17T06:25:47.367Z,10.40
2022-08-17T06:28:14.957Z,10.70
2022-08-17T06:30:59.845Z,9.53
2022-08-17T06:33:10.124Z,9.03
2022-08-17T06:35:40.653Z,11.20
2022-08-17T06:38:37.816Z,10.00
2022-08-17T06:41:03.005Z,10.50
2022-08-17T06:43:46.144Z,10.80
2022-08-17T06:46:16.379Z,9.73
2022-08-17T06:48:49.703Z,10.00
2022-08-17T06:51:28.954Z,8.07
2022-08-17T06:54:00.314Z,8.60
2022-08-17T06:56:54.277Z,9.47
2022-08-17T06:59:20.234Z,9.83
2022-08-17T07:01:47.797Z,11.30
2022-08-17T07:04:21.113Z,9.93
2022-08-17T07:06:51.371Z,10.07
2022-08-17T07:09:36.924Z,8.83
2022-08-17T07:12:16.708Z,11.52
2022-08-17T07:14:44.271Z,10.00
2022-08-17T07:17:11.836Z,11.20
2022-08-17T07:19:42.460Z,10.07
2022-08-17T07:22:55.244Z,9.03
2022-08-17T07:24:58.859Z,10.03
2022-08-17T07:27:38.554Z,9.90
2022-08-17T07:30:15.473Z,11.68
2022-08-17T07:32:43.033Z,10.87
2022-08-17T07:35:31.350Z,10.17
2022-08-17T07:38:25.185Z,11.10
2022-08-17T07:40:48.680Z,10.73
2022-08-17T07:43:23.259Z,10.87
2022-08-17T07:46:08.538Z,11.20
2022-08-17T07:48:36.097Z,10.70
2022-08-17T07:51:03.653Z,10.80
2022-08-17T07:53:31.255Z,13.27
2022-08-17T07:55:59.588Z,13.30
2022-08-17T07:58:27.154Z,11.33
2022-08-17T08:01:06.819Z,11.57
2022-08-17T08:03:34.389Z,10.63
2022-08-17T08:06:01.955Z,10.17
2022-08-17T08:08:43.276Z,10.83
2022-08-17T08:11:13.744Z,10.90
2022-08-17T08:13:41.319Z,10.80
2022-08-17T08:16:18.475Z,12.15
2022-08-17T08:18:56.066Z,11.73
2022-08-17T08:21:22.376Z,11.53
2022-08-17T08:23:52.657Z,11.30
2022-08-17T08:26:30.160Z,11.80
2022-08-17T08:29:03.320Z,10.80
2022-08-17T08:31:55.265Z,10.43
2022-08-17T08:34:44.546Z,12.27
2022-08-17T08:37:17.646Z,11.73
2022-08-17T08:39:44.609Z,12.15
2022-08-17T08:42:19.112Z,10.33
2022-08-17T08:45:00.263Z,11.13
2022-08-17T08:47:17.689Z,10.93
2022-08-17T08:50:37.049Z,9.60
2022-08-17T08:53:08.709Z,10.53
2022-08-17T08:55:48.097Z,11.63
2022-08-17T08:58:31.314Z,11.20
2022-08-17T09:00:46.215Z,12.15
2022-08-17T09:03:19.438Z,11.73
2022-08-17T09:06:01.747Z,11.13
2022-08-17T09:08:32.128Z,12.57
2022-08-17T09:11:05.863Z,11.43
2022-08-17T09:14:21.484Z,11.10
2022-08-17T09:16:38.270Z,12.23
2022-08-17T09:19:06.025Z,11.10
2022-08-17T09:21:51.481Z,12.52
2022-08-17T09:24:25.157Z,11.17
2022-08-17T09:26:58.409Z,11.55
2022-08-17T09:29:25.973Z,10.47
2022-08-17T09:31:56.287Z,10.27
2022-08-17T09:34:33.424Z,10.90
2022-08-17T09:37:06.666Z,10.30
2022-08-17T09:39:37.044Z,11.57
2022-08-17T09:42:13.960Z,12.23
2022-08-17T09:44:41.536Z,12.33
2022-08-17T09:47:42.876Z,11.03
2022-08-17T09:50:14.020Z,11.20
2022-08-17T09:52:41.612Z,11.57
2022-08-17T09:55:09.986Z,12.02
2022-08-17T09:57:59.260Z,10.47
2022-08-17T10:00:26.865Z,11.07
2022-08-17T10:03:09.121Z,9.93
2022-08-17T10:05:42.622Z,10.87
2022-08-17T10:08:37.731Z,10.93
2022-08-17T10:11:11.921Z,10.00
2022-08-17T10:13:53.469Z,10.97
2022-08-17T10:16:37.977Z,11.38
2022-08-17T10:19:24.120Z,10.10
2022-08-17T10:22:14.956Z,11.88
2022-08-17T10:25:21.857Z,10.30
2022-08-17T10:27:23.177Z,11.53
2022-08-17T10:29:53.301Z,10.80
2022-08-17T10:32:29.920Z,11.23
2022-08-17T10:35:22.541Z,12.20
2022-08-17T10:37:50.380Z,12.40
2022-08-17T10:40:17.790Z,12.53
2022-08-17T10:43:22.758Z,11.00
2022-08-17T10:46:10.642Z,11.30
2022-08-17T10:48:27.407Z,10.03
2022-08-17T10:51:00.762Z,11.33
2022-08-17T10:53:38.102Z,11.68
2022-08-17T10:56:14.877Z,11.65
2022-08-17T10:58:57.175Z,11.10
2022-08-17T11:01:36.560Z,10.97
2022-08-17T11:04:09.527Z,11.20
2022-08-17T11:06:39.758Z,12.40
2022-08-17T11:09:26.768Z,11.57
2022-08-17T11:12:31.216Z,10.60
2022-08-17T11:15:02.181Z,11.23
2022-08-17T11:18:07.434Z,10.23
2022-08-17T11:20:53.535Z,10.70
2022-08-17T11:23:38.968Z,10.93
2022-08-17T11:26:06.562Z,10.10
2022-08-17T11:28:34.171Z,8.60
2022-08-17T11:31:37.958Z,9.00
2022-08-17T11:33:56.942Z,7.40
2022-08-17T11:36:46.001Z,8.07
2022-08-17T11:39:31.641Z,8.03
2022-08-17T11:42:01.650Z,8.10
2022-08-17T11:44:50.660Z,8.73
2022-08-17T11:47:39.077Z,9.00
2022-08-17T11:50:45.579Z,6.57
2022-08-17T11:53:37.563Z,7.80
2022-08-17T11:56:30.037Z,7.63
2022-08-17T11:58:57.649Z,7.20
2022-08-17T12:01:25.215Z,7.30
2022-08-17T12:03:55.465Z,6.10
2022-08-17T12:06:32.333Z,6.50
2022-08-17T12:09:06.747Z,7.28
2022-08-17T12:12:01.542Z,5.83
2022-08-17T12:14:19.192Z,6.10
2022-08-17T12:16:42.574Z,4.60
2022-08-17T12:19:10.344Z,4.57
2022-08-17T12:21:49.925Z,5.13
2022-08-17T12:24:29.213Z,5.33
2022-08-17T12:26:56.762Z,5.30
2022-08-17T12:29:35.427Z,4.73
2022-08-17T12:31:53.184Z,4.80
2022-08-17T12:34:20.750Z,4.40
2022-08-17T12:36:49.077Z,4.40
2022-08-17T12:39:21.336Z,4.37
2022-08-17T12:41:47.203Z,4.70
2022-08-17T12:44:20.631Z,4.97
2022-08-17T12:46:53.993Z,4.40
2022-08-17T12:49:26.932Z,4.67
2022-08-17T12:51:54.487Z,4.93
2022-08-17T12:54:22.086Z,4.77
2022-08-17T12:56:49.661Z,4.40
2022-08-17T12:59:17.252Z,4.23
2022-08-17T13:01:45.670Z,4.03
2022-08-17T13:04:13.952Z,4.17
2022-08-17T13:06:41.548Z,3.67
2022-08-17T13:09:12.046Z,4.67
2022-08-17T13:11:39.603Z,4.10
2022-08-17T13:14:10.077Z,4.17
2022-08-17T13:16:38.418Z,4.40
2022-08-17T13:19:14.612Z,4.83
2022-08-17T13:21:50.738Z,4.73
2022-08-17T13:24:18.309Z,4.60
2022-08-17T13:27:08.286Z,4.63
2022-08-17T13:29:51.351Z,4.17
2022-08-17T13:32:39.954Z,4.83
2022-08-17T13:35:32.431Z,4.77
2022-08-17T13:38:02.267Z,4.70
2022-08-17T13:40:33.368Z,4.70
2022-08-17T13:43:00.917Z,4.60
2022-08-17T13:45:36.858Z,4.70
2022-08-17T13:48:23.895Z,4.63
2022-08-17T13:50:57.626Z,4.47
2022-08-17T13:53:27.603Z,3.93
2022-08-17T13:56:37.293Z,4.47
2022-08-17T13:58:40.553Z,4.70
2022-08-17T14:01:29.787Z,4.80
2022-08-17T14:03:57.279Z,4.43
2022-08-17T14:06:53.271Z,4.40
2022-08-17T14:08:55.102Z,4.03
2022-08-17T14:11:22.631Z,4.13
2022-08-17T14:13:50.205Z,4.40
2022-08-17T14:16:17.781Z,3.97
2022-08-17T14:18:56.735Z,4.50
2022-08-17T14:21:13.672Z,4.20
2022-08-17T14:23:41.269Z,3.83
2022-08-17T14:26:08.816Z,4.00
2022-08-17T14:28:36.617Z,4.07
2022-08-17T14:31:03.971Z,4.20
2022-08-17T14:33:32.290Z,3.95
2022-08-17T14:35:59.863Z,4.00
2022-08-17T14:38:27.449Z,3.87
2022-08-17T14:40:54.998Z,3.67
2022-08-17T14:43:22.559Z,4.10
2022-08-17T14:45:50.163Z,4.03
2022-08-17T14:48:17.740Z,3.90
2022-08-17T14:50:45.312Z,4.27
2022-08-17T14:53:12.904Z,3.90
2022-08-17T14:55:40.608Z,3.77
2022-08-17T14:58:08.073Z,3.60
2022-08-17T15:00:35.690Z,3.87
2022-08-17T15:03:03.269Z,3.17
2022-08-17T15:05:30.816Z,3.60
2022-08-17T15:07:58.399Z,3.60
2022-08-17T15:10:26.719Z,3.53
2022-08-17T15:12:54.264Z,3.60
2022-08-17T15:15:22.765Z,3.30
2022-08-17T15:17:50.318Z,3.80
2022-08-17T15:20:17.892Z,3.50
2022-08-17T15:22:45.506Z,3.37
2022-08-17T15:25:13.841Z,3.50
2022-08-17T15:27:41.385Z,3.73
2022-08-17T15:30:09.254Z,3.47
2022-08-17T15:32:36.841Z,3.03
2022-08-17T15:35:04.417Z,3.83
2022-08-17T15:37:32.770Z,3.40
2022-08-17T15:40:00.530Z,3.43
2022-08-17T15:42:27.879Z,3.60
2022-08-17T15:44:55.470Z,3.63
2022-08-17T15:47:23.026Z,3.80
2022-08-17T15:49:50.574Z,3.80
2022-08-17T15:52:19.339Z,4.20
2022-08-17T15:54:52.432Z,3.67
2022-08-17T15:57:20.014Z,3.63
2022-08-17T15:59:47.614Z,3.37
2022-08-17T16:03:14.515Z,3.50
2022-08-17T16:04:44.128Z,3.77
2022-08-17T16:07:11.074Z,4.13
2022-08-17T16:09:39.078Z,3.73
2022-08-17T16:12:10.098Z,3.23
2022-08-17T16:14:37.678Z,3.97
2022-08-17T16:17:06.035Z,4.37
2022-08-17T16:19:33.590Z,3.60
2022-08-17T16:22:01.245Z,4.30
2022-08-17T16:24:28.771Z,3.78
2022-08-17T16:26:56.346Z,3.43
2022-08-17T16:29:23.927Z,4.00
2022-08-17T16:31:51.501Z,3.67
2022-08-17T16:34:19.096Z,3.67
2022-08-17T16:36:51.786Z,4.00
2022-08-17T16:39:15.385Z,3.53
2022-08-17T16:41:45.528Z,3.57
2022-08-17T16:44:15.954Z,3.73
2022-08-17T16:46:45.876Z,3.70
2022-08-17T16:49:11.863Z,3.60
2022-08-17T16:51:39.455Z,3.50
2022-08-17T16:54:07.008Z,3.80
2022-08-17T16:56:34.585Z,3.77
2022-08-17T16:59:14.285Z,3.70
2022-08-17T17:01:30.883Z,3.33
2022-08-17T17:03:58.508Z,4.03
2022-08-17T17:06:44.272Z,3.40
2022-08-17T17:09:11.831Z,3.70
2022-08-17T17:11:42.316Z,3.57
2022-08-17T17:14:15.607Z,3.42
2022-08-17T17:16:54.837Z,3.30
2022-08-17T17:19:35.131Z,3.47
2022-08-17T17:22:13.732Z,3.87
2022-08-17T17:24:50.619Z,3.50
2022-08-17T17:27:52.070Z,3.30
2022-08-17T17:30:25.434Z,3.30
2022-08-17T17:33:20.092Z,3.10
2022-08-17T17:36:03.019Z,3.30
2022-08-17T17:38:30.669Z,3.40
2022-08-17T17:41:03.052Z,3.75
2022-08-17T17:43:38.824Z,3.70
2022-08-17T17:45:58.762Z,3.23
2022-08-17T17:48:26.313Z,3.50
2022-08-17T17:50:59.597Z,3.43
2022-08-17T17:53:41.625Z,3.10
2022-08-17T17:56:43.206Z,3.50
2022-08-17T17:59:12.530Z,3.40
2022-08-17T18:01:38.966Z,3.13
2022-08-17T18:04:21.491Z,3.70
2022-08-17T18:06:54.497Z,3.50
2022-08-17T18:09:24.726Z,3.37
2022-08-17T18:12:10.408Z,4.00
2022-08-17T18:15:02.028Z,3.50
2022-08-17T18:17:29.613Z,3.40
2022-08-17T18:19:57.177Z,3.70
2022-08-17T18:22:24.750Z,3.47
2022-08-17T18:24:55.156Z,3.53
2022-08-17T18:27:25.169Z,3.30
2022-08-17T18:29:52.723Z,3.50
2022-08-17T18:32:27.269Z,3.80
2022-08-17T18:35:10.168Z,3.50
2022-08-17T18:37:47.183Z,3.90
2022-08-17T18:40:17.339Z,3.87
2022-08-17T18:43:16.133Z,3.53
2022-08-17T18:45:46.475Z,3.53
2022-08-17T18:48:32.833Z,3.67
2022-08-17T18:50:59.222Z,4.07
2022-08-17T18:53:35.732Z,4.07
2022-08-17T18:56:16.356Z,3.90
2022-08-17T18:58:43.912Z,3.70
2022-08-17T19:01:17.597Z,3.90
2022-08-17T19:03:46.164Z,4.10
2022-08-17T19:06:22.882Z,3.67
2022-08-17T19:08:50.461Z,3.80
2022-08-17T19:11:20.706Z,4.50
2022-08-17T19:14:03.857Z,4.00
2022-08-17T19:16:46.693Z,3.90
2022-08-17T19:19:22.911Z,4.20
2022-08-17T19:21:57.102Z,4.30
2022-08-17T19:24:24.676Z,4.20
2022-08-17T19:27:01.102Z,4.40
2022-08-17T19:29:37.421Z,4.97
2022-08-17T19:32:05.752Z,4.20
2022-08-17T19:34:34.441Z,4.50
2022-08-17T19:37:00.919Z,5.03
2022-08-17T19:39:38.028Z,4.80
2022-08-17T19:42:05.357Z,4.80
2022-08-17T19:44:54.376Z,4.83
2022-08-17T19:47:53.186Z,5.00
2022-08-17T19:50:00.661Z,4.53
2022-08-17T19:52:34.231Z,5.28
2022-08-17T19:55:18.288Z,5.20
2022-08-17T19:58:11.184Z,4.80
2022-08-17T20:00:38.798Z,4.80
2022-08-17T20:03:16.344Z,4.60
2022-08-17T20:06:12.134Z,5.27
2022-08-17T20:08:28.135Z,5.47
2022-08-17T20:11:04.389Z,5.27
2022-08-17T20:13:47.252Z,5.63
2022-08-17T20:16:15.607Z,5.57
2022-08-17T20:18:52.397Z,5.07
2022-08-17T20:21:35.595Z,5.90
2022-08-17T20:24:06.369Z,5.53
2022-08-17T20:26:58.552Z,5.80
2022-08-17T20:29:36.918Z,5.43
2022-08-17T20:31:51.323Z,5.70
2022-08-17T20:34:24.644Z,5.40
2022-08-17T20:37:10.080Z,5.03
2022-08-17T20:39:50.928Z,4.53
2022-08-17T20:42:21.110Z,4.87
2022-08-17T20:44:48.664Z,5.23
2022-08-17T20:47:27.470Z,5.07
2022-08-17T20:50:01.673Z,5.00
2022-08-17T20:52:41.024Z,5.30
2022-08-17T20:55:08.588Z,5.20
2022-08-17T20:57:36.133Z,4.97
2022-08-17T21:00:28.120Z,5.73
2022-08-17T21:03:20.068Z,5.10
2022-08-17T21:06:00.714Z,4.77
2022-08-17T21:08:54.947Z,5.40
2022-08-17T21:11:58.226Z,5.80
2022-08-17T21:14:11.126Z,6.07
2022-08-17T21:17:06.950Z,6.30
2022-08-17T21:20:09.839Z,5.73
2022-08-17T21:22:50.961Z,5.70
2022-08-17T21:25:21.193Z,6.00
2022-08-17T21:27:48.747Z,6.10
2022-08-17T21:30:16.361Z,5.37
2022-08-17T21:32:44.684Z,6.17
2022-08-17T21:35:14.678Z,6.70
2022-08-17T21:37:45.615Z,6.67
2022-08-17T21:40:18.764Z,6.60
2022-08-17T21:42:46.076Z,6.90
2022-08-17T21:45:35.625Z,6.87
2022-08-17T21:48:06.945Z,6.27
2022-08-17T21:50:34.486Z,5.90
2022-08-17T21:53:04.820Z,6.82
2022-08-17T21:55:32.382Z,7.10
2022-08-17T21:58:13.649Z,6.90
2022-08-17T22:00:33.506Z,6.20
2022-08-17T22:03:04.151Z,7.15
2022-08-17T22:05:36.965Z,6.40
2022-08-17T22:08:07.000Z,5.87
2022-08-17T22:10:37.068Z,6.20
2022-08-17T22:13:19.963Z,6.20
2022-08-17T22:15:50.185Z,5.63
2022-08-17T22:18:20.949Z,6.53
2022-08-17T22:20:48.532Z,6.07
2022-08-17T22:23:34.194Z,6.95
2022-08-17T22:26:04.785Z,6.70
2022-08-17T22:28:44.407Z,6.63
2022-08-17T22:31:14.659Z,6.97
2022-08-17T22:33:52.558Z,6.97
2022-08-17T22:36:29.133Z,7.37
2022-08-17T22:38:54.668Z,6.30
2022-08-17T22:41:28.072Z,6.10
2022-08-17T22:43:55.700Z,6.63
2022-08-17T22:46:24.037Z,6.50
2022-08-17T22:48:51.601Z,6.47
2022-08-17T22:51:19.453Z,7.43
2022-08-17T22:54:05.186Z,7.10
2022-08-17T22:56:51.753Z,6.57
2022-08-17T22:59:40.965Z,6.93
2022-08-17T23:02:24.137Z,6.93
2022-08-17T23:04:54.310Z,7.00
2022-08-17T23:07:22.632Z,6.97
2022-08-17T23:09:50.285Z,6.67
2022-08-17T23:12:17.887Z,7.27
2022-08-17T23:14:48.337Z,6.83
2022-08-17T23:17:16.701Z,8.02
2022-08-17T23:19:44.276Z,7.60
2022-08-17T23:22:11.848Z,8.93
2022-08-17T23:24:43.463Z,7.90
2022-08-17T23:27:11.043Z,7.97
2022-08-17T23:29:38.567Z,7.27
2022-08-17T23:32:06.195Z,7.20
2022-08-17T23:34:33.714Z,7.23
2022-08-17T23:37:01.289Z,8.13
2022-08-17T23:39:29.704Z,8.23
2022-08-17T23:42:00.021Z,8.10
2022-08-17T23:44:27.621Z,7.67
2022-08-17T23:46:55.159Z,8.40
2022-08-17T23:49:22.733Z,7.70
2022-08-17T23:51:50.329Z,7.30
2022-08-17T23:54:17.960Z,7.13
2022-08-17T23:56:48.204Z,8.35
2022-08-17T23:59:15.769Z,7.60
